Saturday, February 24, 2018, 12:07 PM CST
Back to Local

KMDW, Chicago Midway Airport

Location: Chicago, IL, United States Lat: 41.783
Local Time: 12:07 PM CST (18:07 GMT) Lon: -87.75
Time Zone: US/Central Elev: 620 ft

Show me the last for .
Show Coded

Time T Td Feel RH Dir Speed Gust Alt SLP Vis Weather Sky Remarks
2018-02-24 11:53 39 32 29 75 70° 12 21 30.03 30.06 10 BKN016 OVC075 Pressure falling rapidly
6-hr Min Temp (12pm): 35.1°F
6-hr Max Temp (12pm): 39.0°F
2018-02-24 10:53 38 32 30 78 70° 12 - 30.10 30.12 10 BKN017 OVC080 None
2018-02-24 10:37 38 32 30 78 70° 12 - 30.11 - 10 BKN017 OVC080 None
2018-02-24 09:53 37 31 28 78 70° 14 - 30.13 30.15 10 FEW020 OVC090 None
2018-02-24 08:53 36 31 27 81 80° 14 - 30.16 30.18 10 BKN095 OVC200 None
2018-02-24 07:53 35 30 26 81 70° 14 - 30.16 30.19 8 SCT019 OVC095 None
2018-02-24 06:53 35 29 25 78 70° 17 - 30.17 30.19 9 FEW014 OVC018 None
2018-02-24 06:37 35 30 24 81 70° 20 - 30.17 - 9 SCT014 OVC018 None
2018-02-24 05:53 35 31 25 84 70° 17 - 30.19 30.21 7 BKN011 OVC014 6-hr Min Temp (6am): 35.1°F
6-hr Max Temp (6am): 36.0°F
2018-02-24 04:53 36 32 28 85 70° 13 - 30.19 30.21 7 BKN011 OVC022 None
2018-02-24 04:44 36 32 26 85 50° 16 - 30.19 - 7 BKN011 OVC023 None
2018-02-24 04:22 36 32 26 85 60° 18 - 30.20 - 7 BKN023 OVC170 None
2018-02-24 03:53 35 31 27 84 40° 10 - 30.21 30.23 7 FEW015 SCT023 OVC170 None
2018-02-24 02:53 35 29 29 78 30° 8 - 30.23 30.25 8 OVC180 None
2018-02-24 01:53 35 29 29 78 20° 7 - 30.23 30.25 8 OVC160 None
2018-02-24 00:53 35 29 29 78 360° 8 - 30.23 30.25 8 FEW160 OVC200 None
2018-02-23 23:53 35 30 28 81 340° 9 - 30.25 30.27 8 BKN170 OVC300 6-hr Min Temp (12am): 35.1°F
6-hr Max Temp (12am): 39.0°F
24-hr Min Temp (12am): 35.1°F
24-hr Max Temp (12am): 45.0°F
2018-02-23 23:14 36 30 30 78 330° 8 - 30.26 - 9 SCT017 OVC250 None
2018-02-23 22:53 37 32 30 81 310° 9 - 30.27 30.29 9 OVC016 None
2018-02-23 21:53 39 33 36 79 280° 5 - 30.27 30.29 10 OVC018 None
2018-02-23 20:53 39 33 34 79 270° 7 - 30.26 30.28 10 BKN019 OVC180 None
2018-02-23 19:53 39 33 34 79 280° 7 - 30.25 30.27 10 OVC020 None
2018-02-23 18:53 39 33 34 79 280° 7 - 30.25 30.27 10 OVC020 None
2018-02-23 17:53 39 34 35 81 280° 6 - 30.25 30.27 10 OVC015 6-hr Min Temp (6pm): 39.0°F
6-hr Max Temp (6pm): 42.1°F
2018-02-23 16:53 39 34 31 81 260° 14 - 30.23 30.25 10 OVC014 None
2018-02-23 15:53 39 36 32 88 270° 12 - 30.22 30.24 10 OVC010 None
2018-02-23 14:53 40 36 30 85 270° 17 23 30.21 30.23 10 OVC011 None
2018-02-23 13:53 41 37 34 85 270° 13 - 30.18 30.20 10 OVC012 None
2018-02-23 12:53 41 37 33 85 270° 15 - 30.18 30.20 10 OVC011 None
2018-02-23 12:20 41 38 31 88 270° 14 22 30.18 - 10 OVC010 None

Support USWX by starting your Amazon purchase here.